Time;durP1;ratioP1;P1;durP2;ratioP2;P2;SDS_P1;SDS_P2;PMS_P1;PMS_P2;Temp;Humidity;BMP_temperature;BMP_pressure;BME280_temperature;BME280_humidity;BME280_pressure;Samples;Min_cycle;Max_cycle;Signal;HPM_P1;HPM_P2
2023/01/19 00:00:25;;;;;;;7.13;1.10;;;;;;;8.36;67.58;100079.34;5038439;28;20066;-71
2023/01/19 00:02:50;;;;;;;9.53;1.27;;;;;;;9.41;63.33;100069.97;5040016;28;20071;-71
2023/01/19 00:05:16;;;;;;;12.43;2.30;;;;;;;9.58;63.04;100067.94;5036761;28;20057;-71
2023/01/19 00:07:41;;;;;;;6.67;1.70;;;;;;;10.17;60.66;100062.44;5066903;28;20032;-72
2023/01/19 00:10:08;;;;;;;5.07;0.70;;;;;;;9.68;61.61;100073.84;5036353;28;20029;-71
2023/01/19 00:12:33;;;;;;;7.27;1.20;;;;;;;8.84;64.74;100066.56;5037507;28;20057;-71
2023/01/19 00:14:59;;;;;;;4.00;0.83;;;;;;;9.56;61.83;100068.84;5032648;28;20376;-71
2023/01/19 00:17:24;;;;;;;4.90;1.30;;;;;;;9.94;60.64;100068.13;5040256;28;20036;-71
2023/01/19 00:19:49;;;;;;;5.03;1.20;;;;;;;10.08;60.39;100074.84;5033898;28;20033;-71
2023/01/19 00:22:15;;;;;;;11.73;1.83;;;;;;;8.88;67.72;100086.47;5039892;28;20048;-71
2023/01/19 00:24:40;;;;;;;6.27;1.03;;;;;;;9.09;67.26;100097.47;5040016;28;20115;-71
2023/01/19 00:27:06;;;;;;;6.83;1.03;;;;;;;8.63;72.86;100120.69;5043358;28;20522;-71
2023/01/19 00:29:33;;;;;;;0.83;0.60;;;;;;;7.95;72.74;100124.09;5058974;28;20034;-71
2023/01/19 00:31:59;;;;;;;4.27;1.30;;;;;;;7.95;73.07;100121.47;5040453;28;20078;-72
2023/01/19 00:34:25;;;;;;;2.50;0.40;;;;;;;8.07;77.90;100115.25;5038261;28;20151;-72
2023/01/19 00:36:53;;;;;;;1.60;0.40;;;;;;;8.05;76.52;100110.94;5041250;28;20120;-72
2023/01/19 00:39:18;;;;;;;1.03;0.40;;;;;;;8.32;74.37;100102.84;5037527;28;20065;-72
2023/01/19 00:44:27;;;;;;;0.87;0.33;;;;;;;7.91;76.12;100108.50;5044662;28;20047;-72
2023/01/19 00:46:53;;;;;;;2.13;0.67;;;;;;;7.07;82.53;100103.19;5041037;28;20017;-72
2023/01/19 00:49:19;;;;;;;4.03;0.50;;;;;;;8.03;81.68;100107.53;5037063;28;20079;-72
2023/01/19 00:51:44;;;;;;;5.13;0.70;;;;;;;7.78;85.65;100110.38;5075880;28;20075;-72
2023/01/19 00:54:09;;;;;;;3.83;0.50;;;;;;;7.63;83.51;100104.44;5038017;28;20414;-71
2023/01/19 00:56:35;;;;;;;5.67;0.73;;;;;;;8.19;86.56;100118.59;5042552;28;20444;-72
2023/01/19 00:59:01;;;;;;;6.40;0.97;;;;;;;8.10;83.70;100130.00;5037548;28;20025;-72
2023/01/19 01:01:27;;;;;;;2.50;0.57;;;;;;;8.00;81.15;100125.78;5039243;28;20396;-72
2023/01/19 01:03:52;;;;;;;8.00;0.60;;;;;;;7.40;84.43;100122.00;5029586;28;20550;-72
2023/01/19 01:06:19;;;;;;;5.07;0.80;;;;;;;7.96;86.10;100128.38;5042926;28;20040;-72
2023/01/19 01:08:44;;;;;;;3.87;0.87;;;;;;;8.42;83.79;100120.94;5041294;28;20055;-72
2023/01/19 01:11:10;;;;;;;8.00;1.00;;;;;;;8.85;78.06;100128.22;5039683;28;20028;-72
2023/01/19 01:13:35;;;;;;;6.73;0.70;;;;;;;7.81;82.89;100118.16;5036767;28;20113;-72
2023/01/19 01:16:02;;;;;;;7.30;1.27;;;;;;;8.15;84.19;100120.41;5043069;28;20049;-71
2023/01/19 01:18:27;;;;;;;8.10;0.90;;;;;;;8.56;80.19;100129.47;5043887;28;20041;-73
2023/01/19 01:21:00;;;;;;;4.43;0.80;;;;;;;8.29;77.43;100135.84;5037015;28;20025;-71
2023/01/19 01:23:25;;;;;;;3.42;0.43;;;;;;;7.80;81.29;100137.22;5041418;28;20029;-73
2023/01/19 01:25:50;;;;;;;5.27;0.60;;;;;;;8.46;80.47;100148.69;5044377;28;20313;-73
2023/01/19 01:28:16;;;;;;;5.50;0.70;;;;;;;8.08;78.85;100155.19;5039329;28;20028;-73
2023/01/19 01:30:42;;;;;;;8.47;0.50;;;;;;;8.09;80.31;100160.38;5040244;28;20052;-73
2023/01/19 01:33:10;;;;;;;1.67;0.50;;;;;;;8.75;77.02;100161.38;5038449;28;20291;-74
2023/01/19 01:35:35;;;;;;;9.03;0.90;;;;;;;7.74;82.28;100173.72;5038289;28;20029;-73
2023/01/19 01:38:01;;;;;;;9.03;0.63;;;;;;;7.88;80.90;100182.25;5040489;28;20430;-73
2023/01/19 01:40:27;;;;;;;3.63;0.47;;;;;;;7.40;82.29;100179.19;5036515;28;20024;-74
2023/01/19 01:42:53;;;;;;;3.13;0.40;;;;;;;7.43;80.92;100173.97;5039486;28;20087;-74
2023/01/19 01:45:31;;;;;;;3.83;0.70;;;;;;;7.63;80.37;100179.88;5040454;28;20029;-73
2023/01/19 01:48:12;;;;;;;3.30;0.47;;;;;;;8.13;77.83;100182.00;5038827;28;20091;-73
2023/01/19 01:53:50;;;;;;;2.27;0.70;;;;;;;7.72;77.18;100191.06;5016499;28;20120;-73
2023/01/19 01:56:23;;;;;;;0.97;0.30;;;;;;;7.70;78.20;100198.88;5035636;28;20409;-73
2023/01/19 01:58:49;;;;;;;;;;;;;;;7.74;78.28;100197.13;5040031;28;20030;-73
2023/01/19 02:03:58;;;;;;;7.73;0.50;;;;;;;7.84;77.18;100188.38;5036829;28;20428;-73
2023/01/19 02:06:25;;;;;;;2.93;0.47;;;;;;;8.31;76.38;100201.78;5040132;28;20124;-73
2023/01/19 02:14:37;;;;;;;6.00;1.37;;;;;;;8.05;77.65;100210.75;5041394;28;20451;-74
2023/01/19 02:17:04;;;;;;;4.37;0.47;;;;;;;8.16;74.94;100218.44;5029782;28;20033;-74
2023/01/19 02:19:42;;;;;;;8.33;2.20;;;;;;;7.80;76.07;100215.28;5034717;28;20477;-73
2023/01/19 02:22:19;;;;;;;6.77;0.60;;;;;;;8.45;74.29;100230.34;5036996;28;20020;-72
2023/01/19 02:24:44;;;;;;;5.73;0.73;;;;;;;8.62;73.36;100227.53;5040076;28;20040;-72
2023/01/19 02:27:11;;;;;;;5.70;0.80;;;;;;;8.60;72.11;100237.97;5029992;28;20029;-71
2023/01/19 02:29:37;;;;;;;4.37;0.90;;;;;;;8.69;72.26;100239.59;5040748;28;20029;-72
2023/01/19 02:32:04;;;;;;;4.13;0.70;;;;;;;7.32;79.96;100243.38;5032910;28;20332;-71
2023/01/19 02:34:31;;;;;;;0.80;0.60;;;;;;;7.14;82.19;100240.00;5030311;28;20032;-73
2023/01/19 02:36:57;;;;;;;5.23;1.40;;;;;;;8.04;75.93;100245.44;5034579;28;20036;-74
2023/01/19 02:39:50;;;;;;;7.90;1.47;;;;;;;6.78;80.69;100252.31;5044186;28;20033;-72
2023/01/19 02:42:26;;;;;;;5.70;0.93;;;;;;;7.68;76.47;100236.19;5032672;28;20432;-71
2023/01/19 02:44:54;;;;;;;1.93;0.47;;;;;;;6.88;80.75;100243.63;5033127;28;20030;-71
2023/01/19 02:47:19;;;;;;;2.30;0.40;;;;;;;7.28;79.72;100233.00;5036218;28;20125;-71
2023/01/19 02:49:56;;;;;;;2.07;0.40;;;;;;;7.54;78.34;100229.38;5040563;28;20014;-71
2023/01/19 02:52:21;;;;;;;1.83;0.40;;;;;;;8.27;74.93;100224.41;5036653;28;20231;-74
2023/01/19 02:55:15;;;;;;;1.63;0.47;;;;;;;7.86;75.09;100241.28;5036133;28;20025;-72
2023/01/19 02:58:28;;;;;;;5.93;1.10;;;;;;;8.06;73.52;100250.63;5032244;28;20060;-72
2023/01/19 03:01:24;;;;;;;1.38;0.60;;;;;;;8.01;72.63;100255.00;5045413;28;20030;-72
2023/01/19 03:03:59;;;;;;;3.93;1.00;;;;;;;8.91;67.82;100265.41;5035432;28;20025;-74
2023/01/19 03:06:49;;;;;;;2.57;1.00;;;;;;;9.20;66.55;100257.22;5028378;28;20049;-72
2023/01/19 03:09:33;;;;;;;5.53;2.03;;;;;;;8.73;66.96;100261.28;5031685;28;20116;-71
2023/01/19 03:12:03;;;;;;;2.83;0.50;;;;;;;9.28;65.17;100250.13;5037883;28;20021;-72
2023/01/19 03:14:32;;;;;;;4.67;0.90;;;;;;;9.13;66.63;100255.56;5038059;28;20078;-71
2023/01/19 03:17:02;;;;;;;3.87;0.80;;;;;;;9.61;63.72;100273.16;5070264;28;20118;-71
2023/01/19 03:19:35;;;;;;;4.37;0.80;;;;;;;9.38;63.64;100281.31;5035929;28;20388;-71
2023/01/19 03:22:06;;;;;;;3.45;0.73;;;;;;;9.65;61.25;100278.31;5034439;28;20025;-72
2023/01/19 03:24:36;;;;;;;2.93;1.20;;;;;;;9.82;61.70;100266.75;5036437;28;20028;-71
2023/01/19 03:27:24;;;;;;;8.37;0.97;;;;;;;9.54;61.94;100267.19;5063981;28;20045;-71
2023/01/19 03:29:58;;;;;;;1.33;0.50;;;;;;;9.53;63.72;100264.59;5030964;28;20045;-71
2023/01/19 03:32:30;;;;;;;9.43;0.60;;;;;;;9.87;63.26;100254.50;5038024;28;20139;-71
2023/01/19 03:35:00;;;;;;;6.10;0.55;;;;;;;8.68;63.46;100257.88;5039124;28;20480;-71
2023/01/19 03:37:29;;;;;;;3.37;1.27;;;;;;;8.88;65.58;100255.88;5057861;28;20076;-71
2023/01/19 03:39:55;;;;;;;3.47;0.80;;;;;;;9.30;61.52;100273.59;5077240;28;20044;-71
2023/01/19 03:42:23;;;;;;;4.77;1.00;;;;;;;9.82;63.56;100257.19;5044575;28;20463;-73
2023/01/19 03:44:51;;;;;;;3.83;0.70;;;;;;;9.39;61.53;100262.19;5043319;28;20247;-71
2023/01/19 03:47:18;;;;;;;5.03;0.80;;;;;;;9.45;61.97;100262.09;5043307;28;20037;-72
2023/01/19 03:49:46;;;;;;;4.47;0.60;;;;;;;9.77;60.30;100255.53;5035599;28;20033;-71
2023/01/19 03:52:12;;;;;;;4.37;0.67;;;;;;;8.87;62.04;100261.97;5036370;28;20079;-71
2023/01/19 03:54:39;;;;;;;2.90;0.80;;;;;;;9.76;62.82;100265.09;5040562;28;20033;-71
2023/01/19 03:57:05;;;;;;;6.13;1.00;;;;;;;9.50;60.49;100279.38;5035700;28;20477;-71
2023/01/19 03:59:30;;;;;;;7.13;0.77;;;;;;;8.96;63.49;100285.31;5038100;28;20029;-71
2023/01/19 04:01:56;;;;;;;7.33;1.07;;;;;;;9.10;63.63;100276.47;5032884;28;20397;-71
2023/01/19 04:04:21;;;;;;;8.90;0.70;;;;;;;9.66;61.60;100279.19;5032535;28;20025;-71
2023/01/19 04:06:46;;;;;;;8.40;1.53;;;;;;;9.31;63.40;100271.00;5033061;28;20414;-71
2023/01/19 04:09:12;;;;;;;5.57;1.20;;;;;;;9.64;62.50;100268.78;5034013;28;20039;-71
2023/01/19 04:11:37;;;;;;;5.83;0.93;;;;;;;9.54;61.71;100272.38;5071187;28;20025;-70
2023/01/19 04:14:03;;;;;;;14.27;1.30;;;;;;;8.87;67.34;100269.78;5039674;28;20479;-71
2023/01/19 04:16:28;;;;;;;9.17;1.40;;;;;;;9.15;65.33;100269.47;5036051;28;20033;-71
2023/01/19 04:18:54;;;;;;;9.53;1.00;;;;;;;9.31;64.62;100271.00;5030452;28;20021;-71
2023/01/19 04:21:20;;;;;;;13.70;1.73;;;;;;;9.32;64.63;100275.28;5044638;28;20619;-71
2023/01/19 04:23:46;;;;;;;7.73;1.47;;;;;;;9.46;63.39;100274.25;5036899;28;20052;-71
2023/01/19 04:26:11;;;;;;;15.20;1.97;;;;;;;9.17;63.91;100272.91;5039283;28;20063;-71
2023/01/19 04:28:37;;;;;;;16.77;1.70;;;;;;;8.94;67.38;100271.47;5042591;28;20048;-71
2023/01/19 04:31:04;;;;;;;17.03;1.53;;;;;;;9.67;61.45;100257.41;5039615;28;20033;-71
2023/01/19 04:33:30;;;;;;;11.53;1.20;;;;;;;9.42;61.17;100262.97;5039744;28;20090;-71
2023/01/19 04:35:55;;;;;;;11.43;1.60;;;;;;;9.29;62.36;100264.91;5039678;28;20051;-71
2023/01/19 04:38:22;;;;;;;9.80;2.10;;;;;;;9.44;62.93;100265.59;5041057;28;20021;-71
2023/01/19 04:40:49;;;;;;;18.87;2.10;;;;;;;9.03;63.58;100270.47;5031612;28;20040;-70
2023/01/19 04:43:15;;;;;;;10.13;1.97;;;;;;;9.12;65.61;100269.47;5038092;28;20025;-71
2023/01/19 04:45:40;;;;;;;14.27;2.20;;;;;;;9.66;60.97;100271.34;5031735;28;20084;-71
2023/01/19 04:48:05;;;;;;;16.53;3.07;;;;;;;8.98;63.02;100265.34;5043316;28;20033;-71
2023/01/19 04:50:31;;;;;;;15.67;3.30;;;;;;;9.81;61.02;100275.47;5038664;28;20484;-70
2023/01/19 04:52:57;;;;;;;13.47;2.53;;;;;;;9.25;62.28;100278.88;5041354;28;20366;-71
2023/01/19 04:55:23;;;;;;;16.53;2.10;;;;;;;9.21;61.33;100278.94;5037871;28;20024;-71
2023/01/19 04:57:48;;;;;;;14.90;2.40;;;;;;;9.59;59.88;100277.53;5038323;28;20060;-71
2023/01/19 05:00:14;;;;;;;17.13;1.37;;;;;;;9.15;59.89;100282.50;5041789;28;20479;-71
2023/01/19 05:02:44;;;;;;;21.40;2.27;;;;;;;9.62;58.93;100286.19;5035397;28;20408;-71
2023/01/19 05:05:10;;;;;;;13.00;2.47;;;;;;;9.65;60.39;100286.13;5039460;28;20117;-71
2023/01/19 05:07:36;;;;;;;17.77;3.47;;;;;;;9.55;58.75;100279.34;5039569;28;20040;-71
2023/01/19 05:10:01;;;;;;;31.73;3.50;;;;;;;9.26;60.16;100284.94;5033516;28;20429;-71
2023/01/19 05:12:27;;;;;;;30.30;2.60;;;;;;;9.77;57.82;100289.47;5043016;28;20033;-71
2023/01/19 05:14:52;;;;;;;24.80;3.43;;;;;;;9.16;59.27;100297.25;5042756;28;20064;-71
2023/01/19 05:17:18;;;;;;;14.73;1.97;;;;;;;8.97;60.42;100292.28;5058972;28;20124;-70
2023/01/19 05:19:43;;;;;;;16.20;2.57;;;;;;;9.61;58.07;100299.25;5043945;28;20025;-71
2023/01/19 05:22:09;;;;;;;14.70;2.87;;;;;;;9.70;57.69;100298.25;5045592;28;20033;-71
2023/01/19 05:24:34;;;;;;;20.07;2.60;;;;;;;10.28;56.13;100297.31;5042082;28;20026;-71
2023/01/19 05:27:00;;;;;;;17.17;2.47;;;;;;;10.23;55.37;100293.06;5038425;28;21305;-70
2023/01/19 05:29:25;;;;;;;21.23;3.13;;;;;;;10.59;54.76;100295.94;5040373;28;20029;-71
2023/01/19 05:31:51;;;;;;;24.93;2.30;;;;;;;10.07;56.20;100302.91;5037231;28;20029;-71
2023/01/19 05:34:16;;;;;;;21.23;2.33;;;;;;;9.73;56.79;100304.31;5038824;28;20171;-70
2023/01/19 05:36:42;;;;;;;22.43;2.50;;;;;;;9.89;55.83;100304.94;5040599;28;20057;-71
2023/01/19 05:39:07;;;;;;;17.47;2.50;;;;;;;9.81;56.58;100306.81;5040149;28;20021;-70
2023/01/19 05:41:33;;;;;;;18.13;2.73;;;;;;;9.52;57.48;100310.69;5072449;28;20647;-71
2023/01/19 05:43:58;;;;;;;14.70;2.77;;;;;;;9.60;57.59;100308.84;5071793;28;20483;-70
2023/01/19 05:46:24;;;;;;;12.93;1.93;;;;;;;9.20;58.58;100311.97;5040061;28;20468;-71
2023/01/19 05:48:50;;;;;;;15.93;2.13;;;;;;;9.67;57.23;100320.91;5037050;28;20025;-70
2023/01/19 05:51:15;;;;;;;24.53;2.70;;;;;;;10.32;55.14;100317.28;5041703;28;20456;-70
2023/01/19 05:53:41;;;;;;;19.73;2.80;;;;;;;10.64;54.26;100318.47;5043963;28;20497;-71
2023/01/19 05:56:08;;;;;;;15.50;2.30;;;;;;;10.10;55.08;100323.75;5048101;28;20029;-71
2023/01/19 05:58:35;;;;;;;21.10;2.70;;;;;;;9.89;57.09;100331.03;5039509;28;20071;-70
2023/01/19 06:01:08;;;;;;;17.40;2.13;;;;;;;10.45;55.60;100319.72;5045059;28;20127;-70
2023/01/19 06:03:35;;;;;;;19.20;2.20;;;;;;;9.79;56.87;100329.44;5045775;28;20017;-70
2023/01/19 06:06:01;;;;;;;15.50;2.10;;;;;;;9.92;57.52;100341.44;5046458;28;20049;-70
2023/01/19 06:08:27;;;;;;;16.33;2.40;;;;;;;9.85;57.03;100331.97;5044672;28;20028;-70
2023/01/19 06:10:53;;;;;;;23.57;2.30;;;;;;;10.06;55.78;100337.75;5048014;28;20028;-70
2023/01/19 06:13:18;;;;;;;18.87;1.93;;;;;;;9.62;56.52;100338.38;5045607;28;20468;-70
2023/01/19 06:15:44;;;;;;;24.23;3.33;;;;;;;9.96;55.09;100337.88;5046440;28;20054;-71
2023/01/19 06:18:10;;;;;;;19.77;3.57;;;;;;;10.24;54.90;100327.00;5047260;28;20386;-70
2023/01/19 06:20:36;;;;;;;23.07;2.77;;;;;;;9.30;56.43;100339.69;5044350;28;20104;-70
2023/01/19 06:23:02;;;;;;;16.30;2.00;;;;;;;9.44;57.55;100344.72;5047511;28;20100;-70
2023/01/19 06:25:27;;;;;;;14.80;2.00;;;;;;;9.26;58.52;100355.34;5079187;28;20131;-70
2023/01/19 06:27:53;;;;;;;12.33;1.87;;;;;;;8.87;58.82;100353.19;5039254;28;20100;-71
2023/01/19 06:30:19;;;;;;;17.53;2.83;;;;;;;8.84;59.04;100361.06;5036508;28;20031;-70
2023/01/19 06:32:44;;;;;;;21.70;2.40;;;;;;;8.59;59.69;100369.13;5044219;28;20031;-71
2023/01/19 06:35:11;;;;;;;14.47;1.70;;;;;;;8.68;59.29;100367.28;5042331;28;20060;-70
2023/01/19 06:37:36;;;;;;;15.93;2.67;;;;;;;8.98;58.52;100377.44;5041864;28;20554;-71
2023/01/19 06:40:02;;;;;;;19.83;2.13;;;;;;;8.25;59.59;100382.38;5043539;28;20029;-71
2023/01/19 06:42:28;;;;;;;16.13;3.00;;;;;;;8.85;59.11;100381.03;5037296;28;20606;-70
2023/01/19 06:44:53;;;;;;;17.27;2.27;;;;;;;8.18;60.26;100383.31;5036740;28;20424;-70
2023/01/19 06:47:18;;;;;;;16.70;2.10;;;;;;;8.55;59.11;100388.25;5038450;28;20022;-71
2023/01/19 06:49:44;;;;;;;8.07;1.73;;;;;;;8.66;60.19;100394.22;5041913;28;20396;-70
2023/01/19 06:52:13;;;;;;;11.30;2.17;;;;;;;8.65;60.87;100394.25;5030548;28;20029;-70
2023/01/19 06:54:38;;;;;;;11.83;2.70;;;;;;;9.29;60.22;100392.72;5038226;28;20103;-71
2023/01/19 06:57:03;;;;;;;16.30;1.73;;;;;;;9.31;60.04;100405.72;5071433;28;20484;-71
2023/01/19 06:59:29;;;;;;;12.97;2.23;;;;;;;9.44;58.93;100407.31;5039743;28;20060;-71
2023/01/19 07:01:55;;;;;;;19.23;1.90;;;;;;;9.15;58.53;100415.50;5035687;28;20040;-71
2023/01/19 07:04:20;;;;;;;11.10;1.87;;;;;;;8.37;62.63;100424.84;5040994;28;20021;-71
2023/01/19 07:06:46;;;;;;;14.20;3.00;;;;;;;8.51;62.39;100416.97;5035843;28;20517;-71
2023/01/19 07:09:12;;;;;;;15.80;2.40;;;;;;;9.70;58.31;100413.09;5044331;28;20485;-70
2023/01/19 07:11:38;;;;;;;14.47;1.60;;;;;;;9.67;57.40;100420.09;5075456;28;20036;-70
2023/01/19 07:14:03;;;;;;;16.60;1.90;;;;;;;9.91;55.58;100433.69;5041965;28;20029;-71
2023/01/19 07:16:28;;;;;;;8.30;2.20;;;;;;;9.46;56.76;100430.78;5043909;28;20035;-70
2023/01/19 07:18:54;;;;;;;11.93;1.87;;;;;;;9.86;55.62;100425.03;5040015;28;20160;-71
2023/01/19 07:21:20;;;;;;;13.20;2.90;;;;;;;9.62;55.65;100429.72;5042524;28;20381;-71
2023/01/19 07:23:50;;;;;;;11.47;2.53;;;;;;;10.25;55.37;100438.44;5037747;28;20048;-70
2023/01/19 07:26:18;;;;;;;18.90;2.20;;;;;;;9.98;54.11;100444.91;5040672;28;20043;-71
2023/01/19 07:28:44;;;;;;;13.07;2.10;;;;;;;10.38;53.69;100443.50;5045690;28;20033;-71
2023/01/19 07:31:10;;;;;;;17.43;2.13;;;;;;;10.27;54.40;100454.94;5049423;28;20158;-71
2023/01/19 07:33:35;;;;;;;12.97;1.50;;;;;;;10.03;54.12;100453.56;5070241;28;20040;-71
2023/01/19 07:36:00;;;;;;;21.17;2.60;;;;;;;9.68;55.64;100460.97;5055355;28;20056;-71
2023/01/19 07:38:26;;;;;;;22.37;2.93;;;;;;;9.53;56.43;100458.50;5045092;28;20024;-71
2023/01/19 07:40:59;;;;;;;20.63;2.53;;;;;;;10.04;54.94;100459.63;5040493;28;20493;-71
2023/01/19 07:43:24;;;;;;;15.27;2.73;;;;;;;10.06;54.95;100463.09;5031390;28;20028;-71
2023/01/19 07:45:50;;;;;;;22.17;3.23;;;;;;;10.02;55.23;100465.72;5029573;28;20025;-70
2023/01/19 07:48:16;;;;;;;14.90;2.13;;;;;;;9.59;55.97;100468.00;5077671;28;20049;-70
2023/01/19 07:50:41;;;;;;;19.90;2.17;;;;;;;9.74;56.00;100466.97;5049580;28;20512;-71
2023/01/19 07:53:08;;;;;;;15.77;1.93;;;;;;;10.27;53.56;100473.22;5049990;28;20060;-71
2023/01/19 07:55:33;;;;;;;13.57;2.20;;;;;;;9.92;54.58;100487.63;5041728;28;20087;-71
2023/01/19 07:57:59;;;;;;;19.87;1.73;;;;;;;10.08;55.11;100492.66;5045124;28;20036;-71
2023/01/19 08:00:24;;;;;;;19.93;2.97;;;;;;;9.92;54.90;100482.41;5048381;28;20025;-71
2023/01/19 08:02:51;;;;;;;21.67;2.93;;;;;;;9.78;55.49;100484.31;5079670;28;20028;-71
2023/01/19 08:05:18;;;;;;;14.03;1.77;;;;;;;9.80;55.28;100499.09;5047105;28;20044;-71
2023/01/19 08:07:45;;;;;;;21.20;2.27;;;;;;;9.66;55.40;100496.66;5044868;28;20032;-71
2023/01/19 08:10:12;;;;;;;19.40;2.17;;;;;;;8.68;59.05;100513.22;5031320;28;20031;-70
2023/01/19 08:12:38;;;;;;;23.10;2.43;;;;;;;9.26;56.91;100523.16;5076551;28;20029;-70
2023/01/19 08:15:04;;;;;;;23.57;2.77;;;;;;;8.21;59.65;100523.03;5045008;28;20043;-71
2023/01/19 08:17:29;;;;;;;13.53;1.90;;;;;;;8.00;59.78;100519.66;5030750;28;20041;-72
2023/01/19 08:19:55;;;;;;;10.07;1.67;;;;;;;7.84;59.69;100513.63;5042304;28;20029;-71
2023/01/19 08:22:20;;;;;;;14.83;2.30;;;;;;;8.49;58.06;100523.78;5052939;28;20033;-71
2023/01/19 08:24:45;;;;;;;4.87;1.17;;;;;;;8.08;57.42;100527.44;5047116;28;20021;-70
2023/01/19 08:27:11;;;;;;;6.57;1.20;;;;;;;8.39;58.86;100535.94;5030740;28;20021;-71
2023/01/19 08:29:36;;;;;;;14.87;1.90;;;;;;;9.13;56.19;100532.81;5046922;28;20028;-70
2023/01/19 08:32:02;;;;;;;15.57;1.63;;;;;;;9.65;55.02;100531.44;5032738;28;20575;-71
2023/01/19 08:34:31;;;;;;;12.07;1.80;;;;;;;9.04;54.81;100532.94;5046384;28;20060;-71
2023/01/19 08:36:58;;;;;;;8.77;1.30;;;;;;;9.39;55.43;100538.69;5048266;28;20488;-71
2023/01/19 08:39:23;;;;;;;9.40;1.33;;;;;;;8.83;57.75;100539.16;5047881;28;20155;-71
2023/01/19 08:41:49;;;;;;;14.77;1.50;;;;;;;9.11;56.67;100542.41;5048243;28;20374;-71
2023/01/19 08:44:15;;;;;;;11.87;1.60;;;;;;;8.65;57.52;100546.25;5082045;28;20028;-71
2023/01/19 08:46:41;;;;;;;10.43;2.27;;;;;;;9.42;56.54;100543.88;5051996;28;20032;-70
2023/01/19 08:49:07;;;;;;;18.27;3.70;;;;;;;9.71;54.39;100545.31;5036565;28;20040;-71
2023/01/19 08:51:33;;;;;;;18.03;2.83;;;;;;;9.71;54.89;100555.75;5063629;28;20063;-71
2023/01/19 08:53:58;;;;;;;18.07;2.10;;;;;;;8.99;55.85;100545.97;5032106;28;20525;-71
2023/01/19 08:56:23;;;;;;;12.50;1.77;;;;;;;9.12;56.70;100551.09;5062907;28;20477;-70
2023/01/19 08:58:49;;;;;;;13.67;2.17;;;;;;;9.54;55.30;100548.97;5041888;28;20119;-71
2023/01/19 09:01:15;;;;;;;13.53;2.67;;;;;;;10.14;53.67;100545.66;5049531;28;20036;-71
2023/01/19 09:03:41;;;;;;;11.00;2.50;;;;;;;8.82;57.43;100553.09;5050686;28;20017;-71
2023/01/19 09:06:07;;;;;;;15.37;2.20;;;;;;;9.54;56.53;100548.97;5050242;28;20493;-71
2023/01/19 09:08:33;;;;;;;9.97;1.90;;;;;;;9.99;54.30;100541.50;5044444;28;20471;-71
2023/01/19 09:10:59;;;;;;;15.20;2.13;;;;;;;9.61;55.00;100545.41;5050785;28;20025;-71
2023/01/19 09:13:24;;;;;;;16.23;2.63;;;;;;;9.09;56.57;100551.97;5047330;28;20460;-71
2023/01/19 09:15:50;;;;;;;12.03;2.00;;;;;;;9.97;54.54;100548.50;5047149;28;20112;-70
2023/01/19 09:18:21;;;;;;;10.77;1.93;;;;;;;9.53;55.12;100560.28;5048167;28;20450;-71
2023/01/19 09:20:48;;;;;;;13.90;2.50;;;;;;;9.31;57.37;100563.13;5051384;28;20047;-71
2023/01/19 09:23:16;;;;;;;8.27;2.10;;;;;;;9.61;55.34;100565.44;5082308;28;20021;-71
2023/01/19 09:25:44;;;;;;;12.63;2.23;;;;;;;8.85;56.37;100573.91;5050669;28;20072;-71
2023/01/19 09:28:11;;;;;;;19.53;1.70;;;;;;;9.38;56.10;100578.69;5050792;28;20036;-71
2023/01/19 09:30:38;;;;;;;13.80;1.90;;;;;;;8.71;57.13;100580.94;5047885;28;20029;-71
2023/01/19 09:33:06;;;;;;;9.57;1.77;;;;;;;9.13;57.09;100573.69;5049068;28;20028;-71
2023/01/19 09:35:33;;;;;;;22.53;2.37;;;;;;;9.26;56.04;100580.53;5047715;28;20556;-71
2023/01/19 09:37:59;;;;;;;6.67;2.13;;;;;;;9.41;54.10;100584.75;5042974;28;20462;-71
2023/01/19 09:40:25;;;;;;;7.80;1.73;;;;;;;9.11;56.70;100584.13;5027876;28;20037;-71
2023/01/19 09:42:55;;;;;;;19.97;3.23;;;;;;;9.68;54.84;100588.84;5029107;28;20025;-71
2023/01/19 09:45:50;;;;;;;5.40;1.50;;;;;;;9.25;55.08;100584.03;5027501;28;20034;-71
2023/01/19 09:48:38;;;;;;;12.13;1.87;;;;;;;10.32;53.10;100586.38;5029569;28;20041;-71
2023/01/19 09:51:11;;;;;;;7.33;1.70;;;;;;;9.57;53.97;100595.91;5044763;28;20067;-71
2023/01/19 09:54:19;;;;;;;10.30;2.10;;;;;;;9.33;54.32;100597.00;5081525;28;20056;-70
2023/01/19 09:56:47;;;;;;;3.57;1.33;;;;;;;9.02;55.27;100602.44;5050562;28;20032;-71
2023/01/19 09:59:24;;;;;;;12.53;1.63;;;;;;;8.98;54.62;100600.75;5046765;28;20039;-71
2023/01/19 10:02:19;;;;;;;12.77;1.57;;;;;;;9.27;52.78;100599.66;5079984;28;20037;-71
2023/01/19 10:04:55;;;;;;;12.87;1.67;;;;;;;9.55;52.37;100608.13;5040333;28;20075;-71
2023/01/19 10:08:02;;;;;;;6.10;1.87;;;;;;;9.55;52.16;100618.56;5046947;28;20487;-71
2023/01/19 10:10:29;;;;;;;9.77;2.57;;;;;;;10.26;48.96;100615.19;5041352;28;20507;-71
2023/01/19 10:13:07;;;;;;;9.23;1.43;;;;;;;9.25;49.85;100609.25;5044214;28;20464;-71
2023/01/19 10:15:35;;;;;;;8.70;1.30;;;;;;;10.88;47.44;100616.13;5048660;28;20072;-72
2023/01/19 10:18:12;;;;;;;6.10;1.20;;;;;;;10.56;45.73;100609.63;5048626;28;20033;-71
2023/01/19 10:20:44;;;;;;;2.73;1.00;;;;;;;10.84;46.26;100617.94;5046692;28;20040;-71
2023/01/19 10:23:33;;;;;;;11.03;1.67;;;;;;;10.96;45.52;100617.75;5048431;28;20115;-71
2023/01/19 10:26:04;;;;;;;12.77;1.40;;;;;;;9.28;46.86;100623.09;5048634;28;20037;-71
2023/01/19 10:28:30;;;;;;;7.30;1.07;;;;;;;9.98;46.17;100623.31;5045418;28;20431;-71
2023/01/19 10:30:56;;;;;;;8.83;1.33;;;;;;;10.19;46.67;100616.13;5046205;28;20042;-71
2023/01/19 10:33:22;;;;;;;4.07;0.97;;;;;;;10.08;46.28;100628.44;5046889;28;20502;-70
2023/01/19 10:35:47;;;;;;;7.63;1.37;;;;;;;9.56;44.83;100632.44;5047448;28;20829;-71
2023/01/19 10:38:18;;;;;;;2.80;0.63;;;;;;;9.56;44.89;100630.72;5048370;28;20041;-71
2023/01/19 10:40:53;;;;;;;4.60;0.80;;;;;;;10.04;43.65;100630.22;5047758;28;20484;-70
2023/01/19 10:43:41;;;;;;;10.27;1.27;;;;;;;11.31;42.92;100620.72;5048627;28;20484;-71
2023/01/19 10:46:16;;;;;;;4.07;1.20;;;;;;;10.68;42.76;100625.13;5084097;28;20171;-71
2023/01/19 10:48:43;;;;;;;7.60;1.70;;;;;;;10.67;41.24;100629.50;5053430;28;20044;-71
2023/01/19 10:51:10;;;;;;;6.73;1.23;;;;;;;11.63;41.18;100624.53;5052881;28;20500;-71
2023/01/19 10:53:36;;;;;;;6.83;1.67;;;;;;;11.42;40.58;100624.00;5051476;28;20032;-72
2023/01/19 10:56:13;;;;;;;2.87;0.90;;;;;;;10.32;41.71;100617.72;5051235;28;20484;-71
2023/01/19 10:58:42;;;;;;;6.77;1.20;;;;;;;11.21;41.14;100620.00;5052598;28;20496;-71
2023/01/19 11:01:25;;;;;;;4.00;0.70;;;;;;;10.52;41.64;100635.78;5052916;28;20065;-71
2023/01/19 11:04:02;;;;;;;3.40;0.70;;;;;;;10.40;41.09;100625.50;5049076;28;20036;-71
2023/01/19 11:06:29;;;;;;;2.83;0.70;;;;;;;11.11;39.47;100626.25;5083345;28;20565;-72
2023/01/19 11:09:18;;;;;;;4.20;0.93;;;;;;;11.41;40.23;100626.66;5051613;28;20082;-71
2023/01/19 11:11:47;;;;;;;4.53;0.80;;;;;;;10.63;40.85;100629.56;5053416;28;20029;-71
2023/01/19 11:14:16;;;;;;;9.03;1.30;;;;;;;10.91;41.60;100629.16;5084837;28;20060;-71
2023/01/19 11:16:48;;;;;;;7.10;1.20;;;;;;;11.00;40.86;100627.28;5041291;28;20029;-71
2023/01/19 11:19:20;;;;;;;4.97;0.95;;;;;;;10.49;41.22;100629.72;5033767;28;20036;-71
2023/01/19 11:21:46;;;;;;;4.25;1.02;;;;;;;10.56;41.45;100628.75;5035642;28;20029;-70
2023/01/19 11:24:15;;;;;;;5.10;0.80;;;;;;;9.93;41.97;100629.47;5031470;28;20033;-71
2023/01/19 11:26:46;;;;;;;8.73;0.87;;;;;;;10.62;40.64;100626.09;5032017;28;20472;-71
2023/01/19 11:29:21;;;;;;;6.23;1.13;;;;;;;10.02;42.20;100634.63;5032606;28;20044;-71
2023/01/19 11:31:47;;;;;;;7.00;1.90;;;;;;;10.71;41.53;100629.47;5034254;28;20032;-70
2023/01/19 11:34:36;;;;;;;5.80;0.90;;;;;;;10.38;40.39;100626.41;5050700;28;20041;-71
2023/01/19 11:37:15;;;;;;;5.20;1.30;;;;;;;10.07;41.53;100621.50;5045775;28;20448;-71
2023/01/19 11:39:56;;;;;;;11.33;1.17;;;;;;;9.90;42.09;100632.97;5063666;28;20037;-71
2023/01/19 11:42:23;;;;;;;6.13;1.03;;;;;;;10.03;42.03;100625.91;5051399;28;20035;-70
2023/01/19 11:45:02;;;;;;;12.77;0.90;;;;;;;9.92;42.32;100627.75;5052821;28;20024;-70
2023/01/19 11:47:55;;;;;;;2.37;0.67;;;;;;;9.92;42.65;100628.63;5049742;28;20254;-71
2023/01/19 11:50:41;;;;;;;5.32;1.38;;;;;;;10.88;41.52;100627.47;5051777;28;20037;-71